Hauptseite
METAR-TAF:

METAR-TAF

Flughäfen :

Philip S. W. Goldson International Airport

Belize City, Belize

Breite: 17-32N, Länge: 088-18W, Höhe: 5 m

Beobachtung

Neuester Wetterbericht von vor 1 Stunde und 9 Minuten, um 02:00 UTC
Wind 6 kt aus Ost
Temperatur 28°C
Luftfeuchtigkeit 89%
Luftdruck 1013 hPa
Sichtweite 10 km oder mehr
Leicht bewölkt in der Höhe von 1800 ft

METAR: MZBZ 200200Z 09006KT 9999 FEW018 28/26 A2994 Q1013 NOSIG

Zeit: 21:09 (03:09 UTC)

Prognose

Neuester Wetterbericht von vor 6 Stunden und 9 Minuten, um 21:00 UTC
Gültige Prognose vom 20 um 00 UTC bis 20 um 24 UTC
Wind 8 kt aus Ost
Sichtweite 10 km oder mehr
Aufgelockert bewölkt in der Höhe von 2200 ft
Wahrscheinlichkeit 30% :
Zeitweise
vom 20 um 10 UTC bis 20 um 15 UTC
Sichtweite: 5000 m
Durchbrochene Bewölkung in der Höhe von 1500 ft
Regenschauer

TAF: MZBZ 192100Z 2000/2024 09008KT 9999 SCT022 PROB30 TEMPO 2010/2015 5000 SHRA BKN015

Wetterbeobachtungen und Prognosen von mehr als 4000 Flughäfen (METAR und TAF Bericht).

Die verfügbaren Stationen werden durch gelbe und rote Markierungen auf der Karte dargestellt.

Führen Sie die Maus auf sie, um den Namen der Station zu sehen.

Darauf klicken, um die Beobachtung von Wetterbeobachtungen und Prognosen zu sehen.

Um die Karte zu ändern : klicken Sie auf den grünen Tasten mit einem schwarzen Kreuz Zum Vergrößern, auf den grünen Button mit einem Gedankenstrich zu verkleinern, oder auf die grünen Pfeile für benachbarte Karten.


METAR-TAF: